Time;durP1;ratioP1;P1;durP2;ratioP2;P2;SDS_P1;SDS_P2;PMS_P1;PMS_P2;Temp;Humidity;BMP_temperature;BMP_pressure;BME280_temperature;BME280_humidity;BME280_pressure;Samples;Min_cycle;Max_cycle;Signal;HPM_P1;HPM_P2
2021/08/31 00:00:24;;;;;;;2.83;0.90;;;;;;;22.16;49.45;101202.56;5030946;28;20049;-66
2021/08/31 00:02:51;;;;;;;2.25;0.80;;;;;;;22.14;49.78;101195.69;5030685;28;20042;-65
2021/08/31 00:05:18;;;;;;;1.65;0.70;;;;;;;22.11;49.79;101194.19;5030631;28;20132;-65
2021/08/31 00:07:44;;;;;;;1.10;0.80;;;;;;;22.08;49.89;101199.84;5030241;28;20045;-64
2021/08/31 00:10:12;;;;;;;1.25;0.70;;;;;;;22.04;49.96;101189.59;5030738;28;20831;-63
2021/08/31 00:12:39;;;;;;;1.08;0.80;;;;;;;22.05;50.09;101200.13;5030713;28;20434;-64
2021/08/31 00:15:08;;;;;;;2.17;1.00;;;;;;;21.98;49.80;101191.88;5030654;28;20050;-64
2021/08/31 00:17:35;;;;;;;2.10;1.00;;;;;;;21.96;50.28;101201.88;5030387;28;20080;-64
2021/08/31 00:20:04;;;;;;;2.13;1.20;;;;;;;21.92;50.45;101205.00;5030259;28;20049;-64
2021/08/31 00:22:30;;;;;;;1.83;1.02;;;;;;;21.89;50.53;101206.16;5029920;28;20111;-65
2021/08/31 00:24:57;;;;;;;3.78;1.10;;;;;;;21.87;50.34;101205.44;5030255;28;20076;-65
2021/08/31 00:27:23;;;;;;;3.95;1.10;;;;;;;21.90;50.60;101206.97;5030405;28;20497;-65
2021/08/31 00:29:50;;;;;;;1.98;1.02;;;;;;;21.89;50.70;101207.97;5030127;28;20545;-65
2021/08/31 00:32:16;;;;;;;2.97;1.00;;;;;;;21.83;50.64;101210.25;5029990;28;20501;-66
2021/08/31 00:34:43;;;;;;;2.08;1.13;;;;;;;21.80;51.28;101217.72;5029787;28;20561;-65
2021/08/31 00:37:10;;;;;;;3.40;1.20;;;;;;;21.78;51.28;101217.03;5029682;28;20045;-66
2021/08/31 00:39:36;;;;;;;2.90;1.00;;;;;;;21.76;51.07;101211.00;5029871;28;20911;-66
2021/08/31 00:42:03;;;;;;;1.30;0.80;;;;;;;21.77;51.27;101224.19;5029896;28;20119;-65
2021/08/31 00:44:30;;;;;;;1.48;0.90;;;;;;;21.75;51.56;101220.84;5029906;28;20116;-66
2021/08/31 00:47:02;;;;;;;3.88;1.17;;;;;;;21.73;51.32;101222.81;5028609;28;20045;-66
2021/08/31 00:49:29;;;;;;;2.35;0.90;;;;;;;21.71;51.55;101223.97;5043682;28;20041;-65
2021/08/31 00:51:57;;;;;;;2.20;1.00;;;;;;;21.67;51.86;101226.06;5051402;28;20048;-65
2021/08/31 00:54:31;;;;;;;1.58;0.98;;;;;;;21.64;51.93;101226.38;5052905;28;20444;-65
2021/08/31 00:57:00;;;;;;;2.58;1.50;;;;;;;21.63;52.31;101230.03;5052685;28;20057;-65
2021/08/31 00:59:26;;;;;;;1.73;1.40;;;;;;;21.61;51.93;101227.53;5036921;28;20068;-65
2021/08/31 01:01:53;;;;;;;1.63;1.05;;;;;;;21.59;52.25;101228.66;5032916;28;20105;-65
2021/08/31 01:04:25;;;;;;;2.13;1.67;;;;;;;21.60;52.46;101224.97;5032861;28;20100;-65
2021/08/31 01:06:52;;;;;;;3.63;1.08;;;;;;;21.58;52.56;101217.13;5032870;28;20041;-65
2021/08/31 01:09:28;;;;;;;2.85;1.27;;;;;;;21.54;52.54;101219.22;5032903;28;20050;-65
2021/08/31 01:11:56;;;;;;;2.25;1.00;;;;;;;21.52;52.61;101223.00;5032792;28;20041;-66
2021/08/31 01:14:24;;;;;;;2.88;1.30;;;;;;;21.50;52.92;101222.34;5032913;28;20046;-65
2021/08/31 01:16:50;;;;;;;4.38;1.40;;;;;;;21.51;52.74;101219.50;5032884;28;20164;-65
2021/08/31 01:19:18;;;;;;;2.63;1.20;;;;;;;21.51;53.12;101226.69;5032538;28;20486;-65
2021/08/31 01:21:45;;;;;;;1.25;1.00;;;;;;;21.49;53.13;101229.50;5032666;28;20131;-65
2021/08/31 01:24:11;;;;;;;1.50;1.00;;;;;;;21.50;53.21;101230.34;5032485;28;20387;-65
2021/08/31 01:26:38;;;;;;;2.00;1.20;;;;;;;21.45;53.22;101227.28;5032638;28;20112;-65
2021/08/31 01:29:05;;;;;;;2.30;1.20;;;;;;;21.49;53.13;101223.31;5032589;28;20045;-66
2021/08/31 01:31:31;;;;;;;2.05;1.25;;;;;;;21.49;53.29;101224.16;5032108;28;20080;-65
2021/08/31 01:33:58;;;;;;;3.10;1.23;;;;;;;21.48;53.49;101221.63;5032576;28;20084;-65
2021/08/31 01:36:25;;;;;;;3.33;1.30;;;;;;;21.50;53.37;101222.34;5032322;28;20041;-66
2021/08/31 01:38:57;;;;;;;1.88;1.08;;;;;;;21.52;53.45;101231.03;5031209;28;20118;-65
2021/08/31 01:41:26;;;;;;;2.20;1.27;;;;;;;21.52;53.24;101228.34;5032302;28;20486;-65
2021/08/31 01:43:52;;;;;;;2.47;1.17;;;;;;;21.48;53.61;101233.19;5032213;28;20100;-65
2021/08/31 01:46:19;;;;;;;3.47;1.30;;;;;;;21.50;53.53;101230.34;5032339;28;20111;-65
2021/08/31 01:48:46;;;;;;;1.40;0.90;;;;;;;21.48;53.77;101224.31;5032237;28;20521;-65
2021/08/31 01:51:12;;;;;;;3.50;1.80;;;;;;;21.46;53.67;101227.13;5032270;28;20456;-65
2021/08/31 01:53:39;;;;;;;4.65;1.92;;;;;;;21.45;53.52;101237.97;5034398;28;20049;-65
2021/08/31 01:56:06;;;;;;;5.25;1.50;;;;;;;21.41;53.68;101221.38;5032138;28;20057;-65
2021/08/31 01:58:32;;;;;;;2.60;1.40;;;;;;;21.43;53.95;101234.59;5048359;28;20094;-65
2021/08/31 02:00:59;;;;;;;4.10;1.40;;;;;;;21.43;54.10;101229.25;5045079;28;20046;-65
2021/08/31 02:03:26;;;;;;;2.45;1.50;;;;;;;21.40;53.79;101230.38;5031856;28;20486;-65
2021/08/31 02:05:53;;;;;;;1.95;1.20;;;;;;;21.39;53.97;101234.03;5032205;28;20045;-66
2021/08/31 02:08:19;;;;;;;2.08;1.20;;;;;;;21.39;54.19;101225.19;5032277;28;20076;-65
2021/08/31 02:10:46;;;;;;;4.22;1.50;;;;;;;21.35;54.33;101224.63;5050996;28;20049;-66
2021/08/31 02:13:13;;;;;;;3.17;1.38;;;;;;;21.33;54.20;101227.47;5051978;28;20103;-65
2021/08/31 02:15:40;;;;;;;3.45;1.70;;;;;;;21.30;54.48;101225.06;5051972;28;20045;-65
2021/08/31 02:18:07;;;;;;;3.15;1.63;;;;;;;21.31;54.69;101224.09;5051826;28;20081;-65
2021/08/31 02:20:33;;;;;;;2.38;1.27;;;;;;;21.32;54.23;101232.94;5042811;28;20168;-65
2021/08/31 02:23:00;;;;;;;2.65;1.40;;;;;;;21.32;54.69;101228.44;5031918;28;20091;-65
2021/08/31 02:25:27;;;;;;;2.97;1.63;;;;;;;21.32;54.74;101219.59;5032142;28;20055;-65
2021/08/31 02:27:53;;;;;;;2.58;1.58;;;;;;;21.26;54.80;101225.53;5040292;28;20099;-65
2021/08/31 02:30:20;;;;;;;2.83;1.52;;;;;;;21.27;54.90;101219.16;5052160;28;20405;-65
2021/08/31 02:32:48;;;;;;;2.63;1.45;;;;;;;21.24;54.89;101222.97;5051898;28;20472;-65
2021/08/31 02:35:16;;;;;;;3.80;1.60;;;;;;;21.19;55.04;101220.75;5051697;28;20456;-65
2021/08/31 02:37:43;;;;;;;1.92;1.38;;;;;;;21.18;55.34;101227.06;5037515;28;20104;-65
2021/08/31 02:40:11;;;;;;;3.90;1.60;;;;;;;21.13;55.15;101221.34;5031681;28;20041;-65
2021/08/31 02:42:38;;;;;;;5.15;1.40;;;;;;;21.15;55.02;101226.53;5031749;28;20045;-66
2021/08/31 02:45:05;;;;;;;2.67;1.60;;;;;;;21.12;55.62;101222.31;5043190;28;20041;-65
2021/08/31 02:47:31;;;;;;;3.00;1.40;;;;;;;21.14;55.00;101222.16;5051747;28;20045;-65
2021/08/31 02:49:58;;;;;;;1.90;1.48;;;;;;;21.12;55.30;101221.47;5051654;28;20482;-65
2021/08/31 02:52:25;;;;;;;1.75;1.60;;;;;;;21.12;55.52;101221.47;5051738;28;20049;-65
2021/08/31 02:54:51;;;;;;;3.47;1.70;;;;;;;21.11;55.56;101223.28;5036180;28;20065;-65
2021/08/31 02:57:18;;;;;;;3.60;1.63;;;;;;;21.10;55.78;101218.94;5034068;28;20478;-65
2021/08/31 02:59:44;;;;;;;2.47;1.48;;;;;;;21.10;55.53;101220.78;5035294;28;20119;-65
2021/08/31 03:02:11;;;;;;;4.10;1.55;;;;;;;21.10;55.63;101215.44;5034660;28;20554;-65
2021/08/31 03:04:40;;;;;;;2.45;1.73;;;;;;;21.11;55.86;101217.13;5051052;28;20388;-65
2021/08/31 03:07:12;;;;;;;3.47;1.80;;;;;;;21.11;55.86;101214.47;5051561;28;20456;-65
2021/08/31 03:09:39;;;;;;;2.95;1.70;;;;;;;21.11;55.77;101219.78;5040333;28;20053;-65
2021/08/31 03:12:07;;;;;;;4.10;1.90;;;;;;;21.10;55.81;101223.44;5031704;28;20494;-65
2021/08/31 03:14:34;;;;;;;8.68;1.88;;;;;;;21.10;55.84;101228.78;5031738;28;20088;-65
2021/08/31 03:17:00;;;;;;;3.13;1.63;;;;;;;21.11;55.60;101220.63;5031846;28;20490;-65
2021/08/31 03:19:27;;;;;;;2.95;1.90;;;;;;;21.13;55.99;101223.19;5030198;28;20049;-66
2021/08/31 03:21:55;;;;;;;2.65;1.48;;;;;;;21.13;55.67;101224.00;5031386;28;20489;-65
2021/08/31 03:24:23;;;;;;;2.95;1.60;;;;;;;21.08;56.04;101223.59;5031803;28;20041;-66
2021/08/31 03:26:50;;;;;;;2.90;1.60;;;;;;;21.09;56.27;101221.75;5031567;28;20045;-65
2021/08/31 03:29:17;;;;;;;1.50;1.30;;;;;;;21.08;56.22;101215.59;5031722;28;20045;-65
2021/08/31 03:31:43;;;;;;;2.05;1.25;;;;;;;21.05;55.96;101213.19;5031472;28;20100;-65
2021/08/31 03:34:10;;;;;;;2.88;1.92;;;;;;;21.03;56.05;101213.34;5031374;28;20050;-65
2021/08/31 03:36:37;;;;;;;2.10;1.40;;;;;;;20.99;56.23;101214.63;5031219;28;20058;-65
2021/08/31 03:39:04;;;;;;;4.93;2.50;;;;;;;20.98;55.97;101212.94;5031145;28;20091;-65
2021/08/31 03:41:32;;;;;;;1.75;1.40;;;;;;;20.97;56.54;101215.75;5031467;28;20478;-65
2021/08/31 03:43:58;;;;;;;2.45;1.63;;;;;;;20.96;56.11;101214.06;5030934;28;20548;-65
2021/08/31 03:46:25;;;;;;;2.95;1.70;;;;;;;20.88;56.72;101220.13;5031087;28;20045;-65
2021/08/31 03:48:52;;;;;;;3.45;1.55;;;;;;;20.86;56.86;101222.06;5030889;28;20055;-65
2021/08/31 03:51:19;;;;;;;3.33;1.73;;;;;;;20.82;56.86;101221.53;5031022;28;20478;-65
2021/08/31 03:53:45;;;;;;;2.92;1.70;;;;;;;20.82;57.03;101220.69;5031123;28;20064;-65
2021/08/31 03:56:12;;;;;;;4.55;2.15;;;;;;;20.79;57.36;101223.66;5030612;28;20085;-65
2021/08/31 03:58:38;;;;;;;2.45;1.90;;;;;;;20.77;57.26;101223.78;5030823;28;20919;-65
2021/08/31 04:01:05;;;;;;;4.40;1.83;;;;;;;20.77;57.37;101226.44;5030671;28;20099;-65
2021/08/31 04:03:32;;;;;;;5.10;1.70;;;;;;;20.72;57.93;101234.03;5030734;28;20052;-65
2021/08/31 04:05:59;;;;;;;3.22;1.70;;;;;;;20.65;57.85;101236.38;5030828;28;20045;-65
2021/08/31 04:08:25;;;;;;;5.10;2.13;;;;;;;20.62;57.95;101239.34;5029801;28;20065;-65
2021/08/31 04:10:52;;;;;;;4.18;2.17;;;;;;;20.58;57.89;101239.75;5030601;28;20046;-65
2021/08/31 04:13:19;;;;;;;5.18;1.90;;;;;;;20.52;58.14;101238.50;5030480;28;20045;-67
2021/08/31 04:15:49;;;;;;;2.65;1.55;;;;;;;20.52;58.19;101234.00;5030765;28;20180;-67
2021/08/31 04:18:15;;;;;;;3.05;1.80;;;;;;;20.51;58.32;101239.50;5030403;28;20057;-67
2021/08/31 04:20:42;;;;;;;2.35;1.63;;;;;;;20.49;58.43;101241.44;5030483;28;20505;-68
2021/08/31 04:23:09;;;;;;;4.18;1.73;;;;;;;20.49;58.05;101249.44;5030334;28;20050;-67
2021/08/31 04:25:36;;;;;;;5.38;1.90;;;;;;;20.44;58.14;101246.34;5030665;28;20045;-65
2021/08/31 04:28:03;;;;;;;5.40;1.73;;;;;;;20.40;58.68;101248.44;5030492;28;20118;-65
2021/08/31 04:30:29;;;;;;;3.10;1.50;;;;;;;20.34;58.60;101262.31;5030508;28;20092;-65
2021/08/31 04:32:57;;;;;;;4.03;1.58;;;;;;;20.26;58.96;101268.34;5030177;28;20045;-66
2021/08/31 04:35:24;;;;;;;4.65;1.88;;;;;;;20.18;59.01;101271.69;5030305;28;20060;-65
2021/08/31 04:37:52;;;;;;;3.30;2.00;;;;;;;20.27;59.16;101283.38;5029968;28;20056;-67
2021/08/31 04:40:19;;;;;;;6.47;2.13;;;;;;;20.27;59.11;101287.88;5030119;28;20081;-68
2021/08/31 04:42:45;;;;;;;4.68;2.40;;;;;;;20.29;59.11;101285.88;5030003;28;20457;-65
2021/08/31 04:45:12;;;;;;;7.97;2.45;;;;;;;20.27;58.99;101286.03;5030086;28;20528;-65
2021/08/31 04:47:39;;;;;;;4.47;2.20;;;;;;;20.23;59.03;101287.28;5029844;28;20045;-65
2021/08/31 04:50:06;;;;;;;7.03;1.92;;;;;;;20.19;59.27;101293.88;5029775;28;20049;-65
2021/08/31 04:52:33;;;;;;;3.50;1.90;;;;;;;20.21;59.58;101305.22;5029818;28;20045;-65
2021/08/31 04:55:00;;;;;;;5.75;2.00;;;;;;;20.21;59.68;101300.75;5029346;28;20046;-66
2021/08/31 04:57:26;;;;;;;3.60;2.08;;;;;;;20.24;59.66;101304.97;5029924;28;20107;-65
2021/08/31 04:59:53;;;;;;;6.70;2.08;;;;;;;20.27;59.90;101311.84;5029685;28;20106;-65
2021/08/31 05:02:20;;;;;;;2.83;1.88;;;;;;;20.26;59.64;101313.66;5029984;28;20095;-65
2021/08/31 05:04:47;;;;;;;2.65;1.90;;;;;;;20.28;60.03;101314.38;5029806;28;20053;-65
2021/08/31 05:07:15;;;;;;;4.63;2.20;;;;;;;20.22;60.06;101318.41;5029697;28;20545;-65
2021/08/31 05:09:42;;;;;;;4.68;2.22;;;;;;;20.26;60.04;101312.81;5029727;28;20092;-65
2021/08/31 05:12:09;;;;;;;4.10;1.98;;;;;;;20.29;60.31;101309.88;5029697;28;20104;-65
2021/08/31 05:14:35;;;;;;;5.47;1.95;;;;;;;20.34;59.94;101311.16;5029375;28;20042;-65
2021/08/31 05:17:03;;;;;;;3.60;2.13;;;;;;;20.39;60.08;101308.06;5029238;28;20046;-65
2021/08/31 05:19:31;;;;;;;2.25;1.48;;;;;;;20.45;59.54;101299.53;5029226;28;20057;-65
2021/08/31 05:21:59;;;;;;;3.42;1.60;;;;;;;20.53;59.24;101306.81;5029379;28;20465;-65
2021/08/31 05:24:30;;;;;;;2.75;1.58;;;;;;;20.61;59.15;101300.78;5029194;28;20482;-66
2021/08/31 05:26:57;;;;;;;2.63;1.42;;;;;;;20.69;58.35;101301.78;5029126;28;20049;-65
2021/08/31 05:29:24;;;;;;;4.50;1.70;;;;;;;20.75;58.11;101300.44;5029291;28;20046;-65
2021/08/31 05:31:52;;;;;;;3.50;1.80;;;;;;;20.79;58.19;101309.00;5029315;28;20053;-65
2021/08/31 05:34:19;;;;;;;7.47;1.95;;;;;;;20.81;58.25;101309.69;5029177;28;20049;-65
2021/08/31 05:36:46;;;;;;;8.57;2.10;;;;;;;20.91;57.85;101315.88;5029138;28;20092;-65
2021/08/31 05:39:13;;;;;;;7.10;2.20;;;;;;;21.04;57.44;101308.44;5029056;28;20088;-65
2021/08/31 05:41:39;;;;;;;3.55;1.83;;;;;;;21.14;56.99;101308.44;5029117;28;20093;-65
2021/08/31 05:44:06;;;;;;;5.10;1.80;;;;;;;21.22;57.21;101305.03;5029100;28;20073;-65
2021/08/31 05:46:33;;;;;;;4.88;1.80;;;;;;;21.29;56.96;101300.81;5029109;28;20068;-65
2021/08/31 05:49:00;;;;;;;3.28;1.63;;;;;;;21.38;56.60;101301.75;5028848;28;20045;-65
2021/08/31 05:51:27;;;;;;;4.60;1.70;;;;;;;21.38;56.40;101301.75;5028938;28;20418;-65
2021/08/31 05:53:55;;;;;;;4.13;1.70;;;;;;;21.41;56.04;101312.16;5028849;28;20046;-65
2021/08/31 05:56:22;;;;;;;2.58;1.55;;;;;;;21.41;55.89;101313.97;5028910;28;20083;-65
2021/08/31 05:58:48;;;;;;;3.28;1.80;;;;;;;21.42;55.81;101310.31;5028856;28;20054;-67
2021/08/31 06:01:15;;;;;;;3.88;1.38;;;;;;;21.44;56.08;101300.34;5029853;28;20096;-67
2021/08/31 06:03:42;;;;;;;3.63;1.75;;;;;;;21.47;55.74;101297.38;5045985;28;20053;-67
2021/08/31 06:06:08;;;;;;;3.70;1.55;;;;;;;21.58;55.51;101297.25;5048798;28;20041;-68
2021/08/31 06:08:36;;;;;;;6.20;1.98;;;;;;;21.77;54.89;101307.00;5045110;28;20046;-68
2021/08/31 06:11:02;;;;;;;5.00;2.63;;;;;;;21.95;54.38;101307.09;5028933;28;20115;-65
2021/08/31 06:13:29;;;;;;;7.82;2.83;;;;;;;22.12;54.15;101312.66;5028590;28;20493;-65
2021/08/31 06:15:56;;;;;;;5.13;2.53;;;;;;;22.25;53.76;101305.09;5028655;28;20391;-65
2021/08/31 06:18:22;;;;;;;4.28;2.65;;;;;;;22.34;53.46;101306.03;5035811;28;20083;-66
2021/08/31 06:20:50;;;;;;;4.57;2.72;;;;;;;22.25;53.87;101310.44;5048695;28;20531;-69
2021/08/31 06:23:17;;;;;;;5.10;2.80;;;;;;;22.13;54.04;101315.16;5045818;28;20053;-67
2021/08/31 06:25:44;;;;;;;4.70;3.20;;;;;;;22.07;54.32;101325.59;5045772;28;20387;-69
2021/08/31 06:28:10;;;;;;;6.00;3.40;;;;;;;21.99;54.74;101321.84;5047780;28;20061;-70
2021/08/31 06:30:37;;;;;;;5.40;3.42;;;;;;;21.98;54.79;101317.47;5045122;28;20564;-70
2021/08/31 06:33:04;;;;;;;5.50;3.20;;;;;;;21.95;54.72;101324.94;5051730;28;20048;-69
2021/08/31 06:35:30;;;;;;;6.40;2.50;;;;;;;21.94;54.82;101328.59;5051604;28;20068;-69
2021/08/31 06:37:57;;;;;;;4.93;2.25;;;;;;;21.93;54.29;101330.44;5049771;28;20041;-70
2021/08/31 06:40:24;;;;;;;4.63;2.30;;;;;;;21.95;54.55;101324.94;5040981;28;20057;-70
2021/08/31 06:42:52;;;;;;;5.13;2.13;;;;;;;21.93;54.58;101326.91;5052001;28;20060;-71
2021/08/31 06:45:19;;;;;;;4.35;2.10;;;;;;;21.83;54.72;101319.78;5052258;28;20057;-67
2021/08/31 06:47:45;;;;;;;5.13;1.95;;;;;;;21.84;54.32;101310.78;5052168;28;20045;-69
2021/08/31 06:50:16;;;;;;;2.72;1.70;;;;;;;21.81;54.25;101312.91;5040586;28;20086;-71
2021/08/31 06:52:47;;;;;;;3.05;1.52;;;;;;;21.82;54.20;101322.63;5045974;28;20060;-72
2021/08/31 06:55:16;;;;;;;2.75;1.80;;;;;;;21.80;53.79;101328.09;5051458;28;20057;-69
2021/08/31 06:57:47;;;;;;;5.40;2.20;;;;;;;21.83;54.00;101329.66;5050436;28;20110;-69
2021/08/31 07:00:14;;;;;;;3.38;2.17;;;;;;;21.85;53.57;101330.31;5051448;28;20471;-67
2021/08/31 07:02:41;;;;;;;6.55;2.88;;;;;;;21.83;53.73;101327.81;5051280;28;20041;-68
2021/08/31 07:05:09;;;;;;;4.68;2.50;;;;;;;21.86;53.59;101334.69;5051175;28;20444;-69
2021/08/31 07:07:35;;;;;;;4.97;2.28;;;;;;;21.89;53.53;101334.41;5050770;28;20041;-69
2021/08/31 07:10:04;;;;;;;4.68;2.35;;;;;;;21.95;53.36;101338.31;5050806;28;20041;-69
2021/08/31 07:12:30;;;;;;;5.97;3.25;;;;;;;21.89;53.76;101347.75;5047720;28;20037;-69
2021/08/31 07:14:58;;;;;;;5.95;2.33;;;;;;;21.88;53.95;101354.09;5051036;28;20111;-69
2021/08/31 07:17:25;;;;;;;2.80;2.03;;;;;;;21.81;54.09;101350.31;5051251;28;20080;-69
2021/08/31 07:19:52;;;;;;;5.43;1.88;;;;;;;21.83;54.01;101348.34;5051048;28;20107;-69
2021/08/31 07:22:20;;;;;;;3.75;1.98;;;;;;;21.88;53.91;101342.53;5051149;28;20049;-69
2021/08/31 07:24:46;;;;;;;4.95;2.20;;;;;;;21.88;53.69;101348.75;5051062;28;20045;-68
2021/08/31 07:27:14;;;;;;;4.72;2.20;;;;;;;21.91;54.14;101351.13;5050920;28;20164;-68
2021/08/31 07:29:40;;;;;;;3.38;1.80;;;;;;;21.96;53.68;101353.34;5049643;28;20053;-68
2021/08/31 07:32:07;;;;;;;3.50;1.92;;;;;;;22.00;53.78;101357.41;5031063;28;20095;-68
2021/08/31 07:34:34;;;;;;;6.05;1.60;;;;;;;22.05;53.40;101367.66;5043358;28;20072;-69
2021/08/31 07:37:01;;;;;;;3.85;1.67;;;;;;;22.08;53.43;101362.88;5050624;28;20128;-68
2021/08/31 07:39:27;;;;;;;2.95;1.70;;;;;;;22.14;53.56;101366.78;5045502;28;20044;-68
2021/08/31 07:41:54;;;;;;;5.25;1.75;;;;;;;22.14;53.39;101366.78;5048882;28;20045;-67
2021/08/31 07:44:21;;;;;;;3.60;1.60;;;;;;;22.32;53.38;101359.66;5032106;28;20494;-67
2021/08/31 07:46:47;;;;;;;3.28;1.70;;;;;;;22.49;52.89;101362.56;5030481;28;20486;-67
2021/08/31 07:49:14;;;;;;;3.30;1.90;;;;;;;22.58;53.16;101369.66;5030718;28;20088;-68
2021/08/31 07:51:42;;;;;;;6.22;1.90;;;;;;;22.61;52.94;101369.38;5030708;28;20041;-67
2021/08/31 07:54:10;;;;;;;4.68;1.92;;;;;;;22.60;52.93;101370.38;5037776;28;20057;-67
2021/08/31 07:56:37;;;;;;;5.72;1.80;;;;;;;22.60;52.74;101377.53;5050193;28;20053;-67
2021/08/31 07:59:05;;;;;;;6.32;1.60;;;;;;;22.61;52.54;101379.22;5048974;28;20052;-68
2021/08/31 08:01:32;;;;;;;3.95;1.98;;;;;;;22.60;52.49;101381.06;5049843;28;20394;-67
2021/08/31 08:04:00;;;;;;;4.20;2.08;;;;;;;22.62;52.21;101379.06;5030014;28;20513;-67
2021/08/31 08:06:26;;;;;;;3.40;1.88;;;;;;;22.73;51.80;101383.38;5030835;28;20049;-67
2021/08/31 08:08:55;;;;;;;6.47;2.60;;;;;;;22.87;51.44;101373.97;5030382;28;20092;-69
2021/08/31 08:11:22;;;;;;;2.83;1.60;;;;;;;22.92;51.43;101381.53;5030405;28;20453;-67
2021/08/31 08:13:49;;;;;;;5.85;1.90;;;;;;;23.01;51.15;101375.28;5037976;28;20045;-67
2021/08/31 08:16:16;;;;;;;2.72;1.77;;;;;;;23.19;50.97;101369.94;5049308;28;20044;-68
2021/08/31 08:18:43;;;;;;;4.13;1.90;;;;;;;23.25;50.74;101372.00;5049285;28;20048;-67
2021/08/31 08:21:09;;;;;;;3.53;1.70;;;;;;;23.23;50.81;101373.16;5044980;28;20054;-68
2021/08/31 08:23:36;;;;;;;3.10;1.70;;;;;;;23.30;50.72;101372.38;5049177;28;20041;-67
2021/08/31 08:26:03;;;;;;;2.65;1.70;;;;;;;23.51;49.80;101368.50;5049316;28;20053;-67
2021/08/31 08:28:30;;;;;;;3.13;1.35;;;;;;;23.48;49.65;101366.16;5049212;28;20095;-67
2021/08/31 08:30:57;;;;;;;3.22;1.80;;;;;;;23.77;49.37;101373.03;5047035;28;20059;-71
2021/08/31 08:33:24;;;;;;;3.72;1.63;;;;;;;24.13;48.52;101378.28;5046438;28;20048;-70
2021/08/31 08:35:51;;;;;;;5.10;1.70;;;;;;;24.68;47.19;101370.75;5046317;28;20048;-69
2021/08/31 08:38:19;;;;;;;1.88;1.40;;;;;;;25.17;46.23;101368.13;5049559;28;20037;-71
2021/08/31 08:40:46;;;;;;;6.15;1.55;;;;;;;25.52;45.53;101368.81;5049763;28;20134;-68
2021/08/31 08:43:16;;;;;;;3.75;1.45;;;;;;;25.79;44.94;101364.03;5049406;28;20049;-68
2021/08/31 08:45:46;;;;;;;4.78;1.40;;;;;;;26.05;44.20;101365.66;5048658;28;20037;-68
2021/08/31 08:48:24;;;;;;;3.17;1.73;;;;;;;26.22;43.66;101359.19;5044341;28;20053;-68
2021/08/31 08:50:55;;;;;;;4.93;1.40;;;;;;;26.43;43.15;101355.06;5042531;28;20124;-68
2021/08/31 08:53:22;;;;;;;4.15;1.30;;;;;;;26.50;42.94;101364.09;5045079;28;20457;-68
2021/08/31 08:55:49;;;;;;;3.15;1.10;;;;;;;26.69;42.39;101352.03;5048135;28;20110;-68
2021/08/31 08:58:15;;;;;;;1.50;0.90;;;;;;;26.93;41.77;101358.31;5048054;28;20103;-68
2021/08/31 09:01:06;;;;;;;2.10;1.00;;;;;;;27.18;41.19;101347.31;5049180;28;20463;-69
2021/08/31 09:03:39;;;;;;;2.28;1.30;;;;;;;27.34;41.00;101349.03;5048813;28;20053;-68
2021/08/31 09:06:12;;;;;;;4.57;1.25;;;;;;;27.44;40.56;101349.63;5048696;28;20048;-68
2021/08/31 09:08:54;;;;;;;1.65;0.90;;;;;;;27.45;40.37;101358.53;5048936;28;20224;-69
2021/08/31 09:11:30;;;;;;;3.08;1.08;;;;;;;27.61;39.81;101350.28;5047876;28;20049;-68
2021/08/31 09:14:21;;;;;;;3.13;0.90;;;;;;;27.65;39.63;101350.75;5047698;28;20505;-69
2021/08/31 09:16:59;;;;;;;2.25;0.77;;;;;;;27.42;40.05;101353.53;5028987;28;20573;-68
2021/08/31 09:19:40;;;;;;;1.60;0.90;;;;;;;27.72;39.42;101349.00;5028510;28;20304;-70
2021/08/31 09:22:15;;;;;;;3.60;0.80;;;;;;;28.02;38.58;101344.41;5029075;28;20056;-70
2021/08/31 09:25:03;;;;;;;1.98;0.88;;;;;;;28.27;38.54;101349.50;5028891;28;20509;-71
2021/08/31 09:27:39;;;;;;;2.90;1.10;;;;;;;28.32;38.54;101349.78;5029274;28;20049;-70
2021/08/31 09:30:21;;;;;;;2.42;0.80;;;;;;;28.38;38.17;101342.78;5042977;28;20060;-77
2021/08/31 09:33:07;;;;;;;1.98;0.80;;;;;;;28.55;37.78;101334.47;5041953;28;20122;-70
2021/08/31 09:35:38;;;;;;;4.32;1.00;;;;;;;27.92;39.32;101343.03;5043637;28;20123;-70
2021/08/31 09:38:15;;;;;;;4.97;1.27;;;;;;;28.14;38.78;101343.97;5034482;28;20256;-72
2021/08/31 09:40:44;;;;;;;1.75;0.70;;;;;;;28.30;38.24;101340.19;5026096;28;20045;-71
2021/08/31 09:43:17;;;;;;;1.77;1.38;;;;;;;28.60;37.99;101342.81;5043640;28;20417;-71
2021/08/31 09:45:47;;;;;;;2.30;0.88;;;;;;;28.97;37.31;101351.72;5048286;28;20547;-72
2021/08/31 09:48:21;;;;;;;1.70;0.90;;;;;;;29.22;37.02;101345.91;5038801;28;20049;-71
2021/08/31 09:50:52;;;;;;;3.72;0.98;;;;;;;29.31;36.41;101340.16;5028692;28;20227;-70
2021/08/31 09:53:27;;;;;;;2.88;0.95;;;;;;;29.11;37.08;101339.97;5028756;28;20070;-69
2021/08/31 09:56:03;;;;;;;1.88;0.90;;;;;;;29.38;36.42;101347.47;5028591;28;20056;-69
2021/08/31 09:58:31;;;;;;;6.03;1.75;;;;;;;29.32;36.52;101343.72;5031573;28;20084;-71
2021/08/31 10:00:59;;;;;;;2.38;1.08;;;;;;;29.51;36.04;101338.63;5047163;28;20053;-73
2021/08/31 10:03:26;;;;;;;5.43;0.80;;;;;;;29.61;35.79;101329.13;5038854;28;20054;-70
2021/08/31 10:05:59;;;;;;;2.75;1.13;;;;;;;29.54;36.47;101343.66;5028773;28;20053;-71
2021/08/31 10:08:29;;;;;;;3.33;1.08;;;;;;;29.59;35.96;101333.06;5032783;28;20057;-71
2021/08/31 10:11:03;;;;;;;3.08;1.17;;;;;;;29.71;35.76;101327.91;5032016;28;20045;-70
2021/08/31 10:13:37;;;;;;;3.28;1.30;;;;;;;29.70;36.25;101327.09;5032760;28;20056;-69
2021/08/31 10:16:05;;;;;;;2.75;1.23;;;;;;;29.70;35.98;101331.66;5032614;28;20076;-70
2021/08/31 10:18:31;;;;;;;2.08;0.98;;;;;;;30.08;35.71;101331.22;5032028;28;20045;-71
2021/08/31 10:21:13;;;;;;;2.67;1.50;;;;;;;30.15;35.32;101325.88;5032703;28;20137;-73
2021/08/31 10:23:46;;;;;;;2.22;1.20;;;;;;;30.43;35.09;101328.44;5032528;28;20059;-72
2021/08/31 10:26:22;;;;;;;2.38;1.10;;;;;;;30.55;35.25;101325.97;5034822;28;21394;-73
2021/08/31 10:28:51;;;;;;;2.50;1.10;;;;;;;30.73;34.95;101318.09;5048872;28;20049;-73
2021/08/31 10:31:29;;;;;;;4.25;1.40;;;;;;;30.77;34.48;101321.22;5048034;28;20048;-73
2021/08/31 10:33:56;;;;;;;2.97;0.98;;;;;;;30.88;34.73;101317.03;5051297;28;20052;-72
2021/08/31 10:36:37;;;;;;;5.35;1.50;;;;;;;31.01;34.61;101311.63;5051686;28;20728;-74
2021/08/31 10:39:07;;;;;;;3.28;1.33;;;;;;;31.07;34.56;101309.97;5050497;28;20453;-72
2021/08/31 10:41:42;;;;;;;4.93;1.80;;;;;;;30.87;34.80;101313.50;5040874;28;20485;-69
2021/08/31 10:44:12;;;;;;;5.72;1.98;;;;;;;31.10;34.53;101307.69;5051799;28;20053;-71
2021/08/31 10:46:57;;;;;;;2.05;1.45;;;;;;;31.04;34.45;101307.69;5051827;28;20485;-73
2021/08/31 10:49:24;;;;;;;4.55;1.63;;;;;;;31.17;34.28;101299.53;5044784;28;20513;-71
2021/08/31 10:52:11;;;;;;;2.88;1.65;;;;;;;31.47;33.77;101301.78;5043704;28;20052;-74
2021/08/31 10:54:49;;;;;;;6.03;1.73;;;;;;;31.53;34.08;101294.69;5044869;28;20049;-71
2021/08/31 10:57:37;;;;;;;2.72;1.30;;;;;;;31.55;33.66;101290.72;5041748;28;20049;-72
2021/08/31 11:00:16;;;;;;;4.00;1.67;;;;;;;31.49;33.46;101288.00;5042842;28;20073;-72
2021/08/31 11:02:46;;;;;;;2.92;1.30;;;;;;;31.76;33.54;101286.06;5042199;28;20049;-72
2021/08/31 11:05:35;;;;;;;2.28;1.30;;;;;;;31.74;32.96;101291.72;5038217;28;20060;-69
2021/08/31 11:08:02;;;;;;;4.70;1.52;;;;;;;31.74;32.99;101297.16;5044087;28;20053;-70
2021/08/31 11:10:34;;;;;;;3.63;1.40;;;;;;;31.91;32.45;101296.66;5040298;28;20129;-69
2021/08/31 11:13:22;;;;;;;2.40;1.50;;;;;;;32.00;32.32;101291.78;5036022;28;20136;-70
2021/08/31 11:15:49;;;;;;;3.08;1.70;;;;;;;31.69;33.26;101290.69;5044382;28;20114;-69
2021/08/31 11:18:21;;;;;;;3.75;1.70;;;;;;;31.84;32.28;101291.25;5043418;28;20387;-71
2021/08/31 11:20:48;;;;;;;2.88;1.60;;;;;;;32.06;31.91;101280.06;5043467;28;20040;-77
2021/08/31 11:23:23;;;;;;;2.35;1.27;;;;;;;32.01;31.87;101285.31;5048636;28;20133;-78
2021/08/31 11:25:55;;;;;;;2.55;1.27;;;;;;;32.18;32.04;101286.50;5051409;28;20052;-78
2021/08/31 11:28:25;;;;;;;2.70;1.60;;;;;;;32.34;31.26;101277.03;5051077;28;20055;-78
2021/08/31 11:30:56;;;;;;;3.10;1.42;;;;;;;32.41;31.56;101276.97;5051354;28;20455;-70